sensor_id;sensor_type;location;lat;lon;timestamp;temperature;humidity
73322;DHT22;61549;37.044;22.128;2022-10-19T00:01:50;22.40;47.70
73322;DHT22;61549;37.044;22.128;2022-10-19T00:04:16;22.30;47.50
73322;DHT22;61549;37.044;22.128;2022-10-19T00:06:43;22.30;47.50
73322;DHT22;61549;37.044;22.128;2022-10-19T00:09:13;22.30;47.50
73322;DHT22;61549;37.044;22.128;2022-10-19T00:11:42;22.40;47.40
73322;DHT22;61549;37.044;22.128;2022-10-19T00:14:10;22.30;47.50
73322;DHT22;61549;37.044;22.128;2022-10-19T00:16:38;22.40;47.50
73322;DHT22;61549;37.044;22.128;2022-10-19T00:19:13;22.30;47.40
73322;DHT22;61549;37.044;22.128;2022-10-19T00:21:39;22.30;47.40
73322;DHT22;61549;37.044;22.128;2022-10-19T00:24:06;22.30;47.20
73322;DHT22;61549;37.044;22.128;2022-10-19T00:26:32;22.30;47.10
73322;DHT22;61549;37.044;22.128;2022-10-19T00:28:59;22.40;47.20
73322;DHT22;61549;37.044;22.128;2022-10-19T00:31:25;22.30;47.10
73322;DHT22;61549;37.044;22.128;2022-10-19T00:33:52;22.30;47.20
73322;DHT22;61549;37.044;22.128;2022-10-19T00:36:22;22.40;47.30
73322;DHT22;61549;37.044;22.128;2022-10-19T00:38:49;22.30;47.10
73322;DHT22;61549;37.044;22.128;2022-10-19T00:41:16;22.30;47.00
73322;DHT22;61549;37.044;22.128;2022-10-19T00:43:57;22.30;47.10
73322;DHT22;61549;37.044;22.128;2022-10-19T00:46:25;22.30;46.80
73322;DHT22;61549;37.044;22.128;2022-10-19T00:48:53;22.20;47.10
73322;DHT22;61549;37.044;22.128;2022-10-19T00:51:19;22.20;47.10
73322;DHT22;61549;37.044;22.128;2022-10-19T00:53:46;22.20;47.10
73322;DHT22;61549;37.044;22.128;2022-10-19T00:56:13;22.20;47.40
73322;DHT22;61549;37.044;22.128;2022-10-19T00:58:40;22.20;47.40
73322;DHT22;61549;37.044;22.128;2022-10-19T01:01:15;22.10;47.20
73322;DHT22;61549;37.044;22.128;2022-10-19T01:03:41;22.20;47.10
73322;DHT22;61549;37.044;22.128;2022-10-19T01:06:08;22.10;47.00
73322;DHT22;61549;37.044;22.128;2022-10-19T01:08:34;22.10;47.10
73322;DHT22;61549;37.044;22.128;2022-10-19T01:13:59;22.10;47.30
73322;DHT22;61549;37.044;22.128;2022-10-19T01:20:05;22.10;47.00
73322;DHT22;61549;37.044;22.128;2022-10-19T01:25:27;22.10;47.00
73322;DHT22;61549;37.044;22.128;2022-10-19T01:33:21;22.00;46.90
73322;DHT22;61549;37.044;22.128;2022-10-19T01:36:19;21.90;47.00
73322;DHT22;61549;37.044;22.128;2022-10-19T01:46:46;21.90;47.00
73322;DHT22;61549;37.044;22.128;2022-10-19T01:49:21;21.90;47.10
73322;DHT22;61549;37.044;22.128;2022-10-19T01:51:53;21.90;47.10
73322;DHT22;61549;37.044;22.128;2022-10-19T01:54:21;21.90;47.30
73322;DHT22;61549;37.044;22.128;2022-10-19T01:56:49;21.90;47.20
73322;DHT22;61549;37.044;22.128;2022-10-19T01:59:18;21.90;47.20
73322;DHT22;61549;37.044;22.128;2022-10-19T02:01:47;21.90;47.30
73322;DHT22;61549;37.044;22.128;2022-10-19T02:04:18;21.90;47.30
73322;DHT22;61549;37.044;22.128;2022-10-19T02:06:44;21.90;47.30
73322;DHT22;61549;37.044;22.128;2022-10-19T02:09:10;21.80;47.30
73322;DHT22;61549;37.044;22.128;2022-10-19T02:11:44;21.80;47.40
73322;DHT22;61549;37.044;22.128;2022-10-19T02:14:14;21.80;47.20
73322;DHT22;61549;37.044;22.128;2022-10-19T02:16:48;21.80;47.10
73322;DHT22;61549;37.044;22.128;2022-10-19T02:19:19;21.80;47.00
73322;DHT22;61549;37.044;22.128;2022-10-19T02:21:46;21.80;46.90
73322;DHT22;61549;37.044;22.128;2022-10-19T02:24:13;21.80;46.80
73322;DHT22;61549;37.044;22.128;2022-10-19T02:26:40;21.80;46.50
73322;DHT22;61549;37.044;22.128;2022-10-19T02:29:08;21.80;46.50
73322;DHT22;61549;37.044;22.128;2022-10-19T02:31:34;21.80;46.40
73322;DHT22;61549;37.044;22.128;2022-10-19T02:34:00;21.80;46.20
73322;DHT22;61549;37.044;22.128;2022-10-19T02:36:27;21.70;46.00
73322;DHT22;61549;37.044;22.128;2022-10-19T02:38:53;21.70;46.20
73322;DHT22;61549;37.044;22.128;2022-10-19T02:44:04;21.70;46.10
73322;DHT22;61549;37.044;22.128;2022-10-19T02:46:39;21.70;46.10
73322;DHT22;61549;37.044;22.128;2022-10-19T02:49:07;21.70;46.20
73322;DHT22;61549;37.044;22.128;2022-10-19T02:51:53;21.70;45.80
73322;DHT22;61549;37.044;22.128;2022-10-19T02:54:19;21.70;45.70
73322;DHT22;61549;37.044;22.128;2022-10-19T02:56:45;21.60;45.80
73322;DHT22;61549;37.044;22.128;2022-10-19T02:59:11;21.60;45.70
73322;DHT22;61549;37.044;22.128;2022-10-19T03:01:36;21.60;45.60
73322;DHT22;61549;37.044;22.128;2022-10-19T03:04:02;21.60;45.70
73322;DHT22;61549;37.044;22.128;2022-10-19T03:06:28;21.50;45.70
73322;DHT22;61549;37.044;22.128;2022-10-19T03:08:54;21.60;45.70
73322;DHT22;61549;37.044;22.128;2022-10-19T03:11:20;21.60;45.80
73322;DHT22;61549;37.044;22.128;2022-10-19T03:13:46;21.60;45.70
73322;DHT22;61549;37.044;22.128;2022-10-19T03:16:12;21.70;46.90
73322;DHT22;61549;37.044;22.128;2022-10-19T03:18:39;21.70;47.30
73322;DHT22;61549;37.044;22.128;2022-10-19T03:21:09;21.70;46.60
73322;DHT22;61549;37.044;22.128;2022-10-19T03:23:36;21.60;46.40
73322;DHT22;61549;37.044;22.128;2022-10-19T03:26:03;21.60;47.00
73322;DHT22;61549;37.044;22.128;2022-10-19T03:28:29;21.60;47.00
73322;DHT22;61549;37.044;22.128;2022-10-19T03:30:55;21.60;47.40
73322;DHT22;61549;37.044;22.128;2022-10-19T03:33:21;21.50;46.80
73322;DHT22;61549;37.044;22.128;2022-10-19T03:35:47;21.50;46.80
73322;DHT22;61549;37.044;22.128;2022-10-19T03:38:13;21.50;46.70
73322;DHT22;61549;37.044;22.128;2022-10-19T03:40:39;21.50;46.80
73322;DHT22;61549;37.044;22.128;2022-10-19T03:43:05;21.50;46.90
73322;DHT22;61549;37.044;22.128;2022-10-19T03:45:31;21.40;47.00
73322;DHT22;61549;37.044;22.128;2022-10-19T03:47:57;21.40;47.00
73322;DHT22;61549;37.044;22.128;2022-10-19T03:50:23;21.40;46.80
73322;DHT22;61549;37.044;22.128;2022-10-19T03:52:49;21.40;46.80
73322;DHT22;61549;37.044;22.128;2022-10-19T03:55:15;21.40;46.80
73322;DHT22;61549;37.044;22.128;2022-10-19T03:57:41;21.40;46.90
73322;DHT22;61549;37.044;22.128;2022-10-19T04:00:08;21.40;46.80
73322;DHT22;61549;37.044;22.128;2022-10-19T04:02:34;21.40;46.80
73322;DHT22;61549;37.044;22.128;2022-10-19T04:05:00;21.40;46.80
73322;DHT22;61549;37.044;22.128;2022-10-19T04:07:26;21.30;46.90
73322;DHT22;61549;37.044;22.128;2022-10-19T04:09:52;21.40;47.30
73322;DHT22;61549;37.044;22.128;2022-10-19T04:12:18;21.30;47.20
73322;DHT22;61549;37.044;22.128;2022-10-19T04:14:44;21.30;47.70
73322;DHT22;61549;37.044;22.128;2022-10-19T04:17:10;21.30;47.80
73322;DHT22;61549;37.044;22.128;2022-10-19T04:19:36;21.30;47.70
73322;DHT22;61549;37.044;22.128;2022-10-19T04:22:02;21.30;47.60
73322;DHT22;61549;37.044;22.128;2022-10-19T04:24:28;21.20;47.50
73322;DHT22;61549;37.044;22.128;2022-10-19T04:26:55;21.20;47.50
73322;DHT22;61549;37.044;22.128;2022-10-19T04:29:23;21.20;47.40
73322;DHT22;61549;37.044;22.128;2022-10-19T04:31:50;21.20;47.60
73322;DHT22;61549;37.044;22.128;2022-10-19T04:34:16;21.10;47.80
73322;DHT22;61549;37.044;22.128;2022-10-19T04:36:43;21.10;48.00
73322;DHT22;61549;37.044;22.128;2022-10-19T04:39:09;21.10;47.90
73322;DHT22;61549;37.044;22.128;2022-10-19T04:41:36;21.10;47.70
73322;DHT22;61549;37.044;22.128;2022-10-19T04:44:03;21.10;47.90
73322;DHT22;61549;37.044;22.128;2022-10-19T04:46:31;21.10;48.00
73322;DHT22;61549;37.044;22.128;2022-10-19T04:48:57;21.10;47.90
73322;DHT22;61549;37.044;22.128;2022-10-19T04:51:24;21.10;48.00
73322;DHT22;61549;37.044;22.128;2022-10-19T04:53:51;21.10;48.50
73322;DHT22;61549;37.044;22.128;2022-10-19T04:56:20;21.00;48.40
73322;DHT22;61549;37.044;22.128;2022-10-19T04:58:47;21.00;48.80
73322;DHT22;61549;37.044;22.128;2022-10-19T05:01:18;21.10;48.20
73322;DHT22;61549;37.044;22.128;2022-10-19T05:03:45;21.10;48.70
73322;DHT22;61549;37.044;22.128;2022-10-19T05:06:12;21.10;48.80
73322;DHT22;61549;37.044;22.128;2022-10-19T05:08:39;21.10;47.90
73322;DHT22;61549;37.044;22.128;2022-10-19T05:11:08;21.10;48.30
73322;DHT22;61549;37.044;22.128;2022-10-19T05:13:35;21.10;48.20
73322;DHT22;61549;37.044;22.128;2022-10-19T05:16:09;21.10;48.60
73322;DHT22;61549;37.044;22.128;2022-10-19T05:18:35;21.10;48.50
73322;DHT22;61549;37.044;22.128;2022-10-19T05:23:31;21.10;48.80
73322;DHT22;61549;37.044;22.128;2022-10-19T05:26:00;21.10;48.90
73322;DHT22;61549;37.044;22.128;2022-10-19T05:28:26;21.10;49.40
73322;DHT22;61549;37.044;22.128;2022-10-19T05:30:51;21.20;49.50
73322;DHT22;61549;37.044;22.128;2022-10-19T05:33:17;21.10;49.60
73322;DHT22;61549;37.044;22.128;2022-10-19T05:35:43;21.20;49.50
73322;DHT22;61549;37.044;22.128;2022-10-19T05:38:09;21.20;49.70
73322;DHT22;61549;37.044;22.128;2022-10-19T05:40:35;21.20;49.90
73322;DHT22;61549;37.044;22.128;2022-10-19T05:43:00;21.20;50.10
73322;DHT22;61549;37.044;22.128;2022-10-19T05:45:26;21.20;50.60
73322;DHT22;61549;37.044;22.128;2022-10-19T05:47:52;21.40;50.30
73322;DHT22;61549;37.044;22.128;2022-10-19T05:50:18;21.60;50.70
73322;DHT22;61549;37.044;22.128;2022-10-19T05:52:44;21.70;50.30
73322;DHT22;61549;37.044;22.128;2022-10-19T05:55:10;21.90;50.70
73322;DHT22;61549;37.044;22.128;2022-10-19T05:57:35;22.00;50.00
73322;DHT22;61549;37.044;22.128;2022-10-19T06:00:03;22.10;50.60
73322;DHT22;61549;37.044;22.128;2022-10-19T06:02:30;22.30;49.80
73322;DHT22;61549;37.044;22.128;2022-10-19T06:04:56;22.40;49.00
73322;DHT22;61549;37.044;22.128;2022-10-19T06:07:41;22.50;49.10
73322;DHT22;61549;37.044;22.128;2022-10-19T06:10:07;22.70;48.20
73322;DHT22;61549;37.044;22.128;2022-10-19T06:12:34;22.70;48.50
73322;DHT22;61549;37.044;22.128;2022-10-19T06:15:00;22.80;48.40
73322;DHT22;61549;37.044;22.128;2022-10-19T06:17:28;23.00;47.50
73322;DHT22;61549;37.044;22.128;2022-10-19T06:19:54;23.10;47.40
73322;DHT22;61549;37.044;22.128;2022-10-19T06:22:19;23.20;47.90
73322;DHT22;61549;37.044;22.128;2022-10-19T06:24:46;23.40;47.20
73322;DHT22;61549;37.044;22.128;2022-10-19T06:27:12;23.50;47.10
73322;DHT22;61549;37.044;22.128;2022-10-19T06:29:38;23.70;46.90
73322;DHT22;61549;37.044;22.128;2022-10-19T06:32:03;23.80;46.70
73322;DHT22;61549;37.044;22.128;2022-10-19T06:34:29;23.90;46.70
73322;DHT22;61549;37.044;22.128;2022-10-19T06:36:55;24.00;46.80
73322;DHT22;61549;37.044;22.128;2022-10-19T06:39:21;24.20;46.30
73322;DHT22;61549;37.044;22.128;2022-10-19T06:41:47;24.30;45.80
73322;DHT22;61549;37.044;22.128;2022-10-19T06:44:12;24.50;45.40
73322;DHT22;61549;37.044;22.128;2022-10-19T06:46:38;24.60;45.20
73322;DHT22;61549;37.044;22.128;2022-10-19T06:49:04;24.80;45.30
73322;DHT22;61549;37.044;22.128;2022-10-19T06:51:31;24.90;45.00
73322;DHT22;61549;37.044;22.128;2022-10-19T06:53:58;25.00;45.10
73322;DHT22;61549;37.044;22.128;2022-10-19T06:56:25;25.10;44.70
73322;DHT22;61549;37.044;22.128;2022-10-19T06:58:52;25.20;44.60
73322;DHT22;61549;37.044;22.128;2022-10-19T07:01:18;25.40;44.10
73322;DHT22;61549;37.044;22.128;2022-10-19T07:03:44;25.50;43.40
73322;DHT22;61549;37.044;22.128;2022-10-19T07:06:11;25.50;43.20
73322;DHT22;61549;37.044;22.128;2022-10-19T07:08:39;25.60;43.60
73322;DHT22;61549;37.044;22.128;2022-10-19T07:11:08;25.70;42.80
73322;DHT22;61549;37.044;22.128;2022-10-19T07:13:35;25.90;42.00
73322;DHT22;61549;37.044;22.128;2022-10-19T07:16:03;26.00;41.70
73322;DHT22;61549;37.044;22.128;2022-10-19T07:18:34;26.10;41.50
73322;DHT22;61549;37.044;22.128;2022-10-19T08:06:56;25.40;46.70
73322;DHT22;61549;37.044;22.128;2022-10-19T08:09:22;27.10;44.00
73322;DHT22;61549;37.044;22.128;2022-10-19T08:11:48;27.40;42.40
73322;DHT22;61549;37.044;22.128;2022-10-19T08:14:14;27.60;42.40
73322;DHT22;61549;37.044;22.128;2022-10-19T08:16:40;27.80;41.90
73322;DHT22;61549;37.044;22.128;2022-10-19T08:19:10;27.90;40.70
73322;DHT22;61549;37.044;22.128;2022-10-19T08:21:38;28.10;40.40
73322;DHT22;61549;37.044;22.128;2022-10-19T08:24:05;28.10;39.90
73322;DHT22;61549;37.044;22.128;2022-10-19T08:26:32;28.20;39.50
73322;DHT22;61549;37.044;22.128;2022-10-19T08:31:33;28.30;40.00
73322;DHT22;61549;37.044;22.128;2022-10-19T08:33:59;28.30;39.50
73322;DHT22;61549;37.044;22.128;2022-10-19T08:36:25;28.20;39.40
73322;DHT22;61549;37.044;22.128;2022-10-19T08:38:52;28.30;39.30
73322;DHT22;61549;37.044;22.128;2022-10-19T08:41:37;28.30;38.50
73322;DHT22;61549;37.044;22.128;2022-10-19T08:47:32;28.30;38.60
73322;DHT22;61549;37.044;22.128;2022-10-19T08:50:00;28.30;37.80
73322;DHT22;61549;37.044;22.128;2022-10-19T08:52:33;28.30;37.40
73322;DHT22;61549;37.044;22.128;2022-10-19T08:55:02;28.30;38.00
73322;DHT22;61549;37.044;22.128;2022-10-19T08:57:41;28.20;37.90
73322;DHT22;61549;37.044;22.128;2022-10-19T09:08:25;28.10;37.30
73322;DHT22;61549;37.044;22.128;2022-10-19T09:10:52;28.00;37.90
73322;DHT22;61549;37.044;22.128;2022-10-19T09:13:38;28.00;37.10
73322;DHT22;61549;37.044;22.128;2022-10-19T09:16:12;28.10;37.70
73322;DHT22;61549;37.044;22.128;2022-10-19T09:18:38;28.20;37.50
73322;DHT22;61549;37.044;22.128;2022-10-19T09:26:17;28.10;38.10
73322;DHT22;61549;37.044;22.128;2022-10-19T09:31:17;28.10;38.40
73322;DHT22;61549;37.044;22.128;2022-10-19T09:33:49;28.20;37.50
73322;DHT22;61549;37.044;22.128;2022-10-19T09:36:16;28.30;35.50
73322;DHT22;61549;37.044;22.128;2022-10-19T09:38:42;28.30;37.20
73322;DHT22;61549;37.044;22.128;2022-10-19T09:41:17;28.30;37.60
73322;DHT22;61549;37.044;22.128;2022-10-19T09:43:49;28.20;38.00
73322;DHT22;61549;37.044;22.128;2022-10-19T09:46:32;28.30;37.60
73322;DHT22;61549;37.044;22.128;2022-10-19T09:48:59;28.30;38.00
73322;DHT22;61549;37.044;22.128;2022-10-19T09:51:45;28.30;38.30
73322;DHT22;61549;37.044;22.128;2022-10-19T09:54:41;28.30;37.90
73322;DHT22;61549;37.044;22.128;2022-10-19T09:57:19;28.30;37.60
73322;DHT22;61549;37.044;22.128;2022-10-19T09:59:50;28.40;37.20
73322;DHT22;61549;37.044;22.128;2022-10-19T10:02:20;28.40;37.10
73322;DHT22;61549;37.044;22.128;2022-10-19T10:04:55;28.00;38.90
73322;DHT22;61549;37.044;22.128;2022-10-19T10:07:26;28.20;37.60
73322;DHT22;61549;37.044;22.128;2022-10-19T10:09:54;28.30;38.10
73322;DHT22;61549;37.044;22.128;2022-10-19T10:12:21;28.50;38.70
73322;DHT22;61549;37.044;22.128;2022-10-19T10:14:48;28.50;38.50
73322;DHT22;61549;37.044;22.128;2022-10-19T10:17:21;28.60;37.90
73322;DHT22;61549;37.044;22.128;2022-10-19T10:22:31;28.80;36.80
73322;DHT22;61549;37.044;22.128;2022-10-19T10:24:57;28.80;37.00
73322;DHT22;61549;37.044;22.128;2022-10-19T10:27:35;28.80;37.90
73322;DHT22;61549;37.044;22.128;2022-10-19T10:30:15;28.70;36.30
73322;DHT22;61549;37.044;22.128;2022-10-19T10:32:48;28.70;36.70
73322;DHT22;61549;37.044;22.128;2022-10-19T10:35:22;28.70;37.00
73322;DHT22;61549;37.044;22.128;2022-10-19T10:37:49;28.60;37.10
73322;DHT22;61549;37.044;22.128;2022-10-19T10:40:22;28.70;38.10
73322;DHT22;61549;37.044;22.128;2022-10-19T10:42:51;28.70;37.00
73322;DHT22;61549;37.044;22.128;2022-10-19T10:45:22;28.80;37.60
73322;DHT22;61549;37.044;22.128;2022-10-19T10:47:50;28.80;38.60
73322;DHT22;61549;37.044;22.128;2022-10-19T10:50:24;28.80;38.30
73322;DHT22;61549;37.044;22.128;2022-10-19T10:53:02;28.80;38.60
73322;DHT22;61549;37.044;22.128;2022-10-19T10:55:53;28.70;38.30
73322;DHT22;61549;37.044;22.128;2022-10-19T10:58:47;28.70;35.90
73322;DHT22;61549;37.044;22.128;2022-10-19T11:01:22;28.80;38.80
73322;DHT22;61549;37.044;22.128;2022-10-19T11:04:18;28.90;39.80
73322;DHT22;61549;37.044;22.128;2022-10-19T11:07:00;28.90;39.00
73322;DHT22;61549;37.044;22.128;2022-10-19T11:09:37;28.90;38.20
73322;DHT22;61549;37.044;22.128;2022-10-19T11:12:12;29.00;39.20
73322;DHT22;61549;37.044;22.128;2022-10-19T11:14:45;28.80;38.50
73322;DHT22;61549;37.044;22.128;2022-10-19T11:17:26;28.80;39.00
73322;DHT22;61549;37.044;22.128;2022-10-19T11:20:17;28.80;39.60
73322;DHT22;61549;37.044;22.128;2022-10-19T11:22:54;28.80;39.80
73322;DHT22;61549;37.044;22.128;2022-10-19T11:25:34;28.70;38.30
73322;DHT22;61549;37.044;22.128;2022-10-19T11:30:54;28.50;40.00
73322;DHT22;61549;37.044;22.128;2022-10-19T11:36:19;28.60;38.90
73322;DHT22;61549;37.044;22.128;2022-10-19T11:42:10;28.70;41.00
73322;DHT22;61549;37.044;22.128;2022-10-19T11:53:38;28.70;40.70
73322;DHT22;61549;37.044;22.128;2022-10-19T11:56:01;28.60;40.50
73322;DHT22;61549;37.044;22.128;2022-10-19T12:04:45;28.70;42.30
73322;DHT22;61549;37.044;22.128;2022-10-19T12:10:18;28.30;43.00
73322;DHT22;61549;37.044;22.128;2022-10-19T12:12:48;28.50;42.90
73322;DHT22;61549;37.044;22.128;2022-10-19T12:15:27;28.50;42.90
73322;DHT22;61549;37.044;22.128;2022-10-19T12:18:00;28.20;42.70
73322;DHT22;61549;37.044;22.128;2022-10-19T12:20:34;28.20;42.70
73322;DHT22;61549;37.044;22.128;2022-10-19T12:23:18;28.10;42.80
73322;DHT22;61549;37.044;22.128;2022-10-19T12:25:46;28.10;42.80
73322;DHT22;61549;37.044;22.128;2022-10-19T12:28:34;28.10;43.20
73322;DHT22;61549;37.044;22.128;2022-10-19T12:31:02;27.90;42.10
73322;DHT22;61549;37.044;22.128;2022-10-19T12:33:46;28.00;43.50
73322;DHT22;61549;37.044;22.128;2022-10-19T12:39:16;28.10;42.50
73322;DHT22;61549;37.044;22.128;2022-10-19T12:47:21;27.60;44.50
73322;DHT22;61549;37.044;22.128;2022-10-19T12:49:49;27.70;44.30
73322;DHT22;61549;37.044;22.128;2022-10-19T12:52:41;27.60;45.40
73322;DHT22;61549;37.044;22.128;2022-10-19T12:55:32;27.60;45.30
73322;DHT22;61549;37.044;22.128;2022-10-19T12:58:20;27.60;45.60
73322;DHT22;61549;37.044;22.128;2022-10-19T13:01:00;27.50;44.90
73322;DHT22;61549;37.044;22.128;2022-10-19T13:03:32;27.50;45.20
73322;DHT22;61549;37.044;22.128;2022-10-19T13:11:18;27.70;45.10
73322;DHT22;61549;37.044;22.128;2022-10-19T13:19:00;27.90;44.30
73322;DHT22;61549;37.044;22.128;2022-10-19T13:22:23;27.90;44.10
73322;DHT22;61549;37.044;22.128;2022-10-19T13:25:21;27.90;43.70
73322;DHT22;61549;37.044;22.128;2022-10-19T13:27:56;27.90;44.20
73322;DHT22;61549;37.044;22.128;2022-10-19T13:43:28;27.80;43.30
73322;DHT22;61549;37.044;22.128;2022-10-19T13:46:06;28.00;44.30
73322;DHT22;61549;37.044;22.128;2022-10-19T13:51:44;27.90;44.10
73322;DHT22;61549;37.044;22.128;2022-10-19T13:54:28;27.80;43.40
73322;DHT22;61549;37.044;22.128;2022-10-19T13:57:18;27.90;44.40
73322;DHT22;61549;37.044;22.128;2022-10-19T13:59:58;27.90;44.30
73322;DHT22;61549;37.044;22.128;2022-10-19T14:02:36;27.80;45.00
73322;DHT22;61549;37.044;22.128;2022-10-19T14:10:21;27.60;45.90
73322;DHT22;61549;37.044;22.128;2022-10-19T14:12:48;27.60;45.80
73322;DHT22;61549;37.044;22.128;2022-10-19T14:15:24;27.70;45.50
73322;DHT22;61549;37.044;22.128;2022-10-19T14:17:52;27.50;46.60
73322;DHT22;61549;37.044;22.128;2022-10-19T14:20:36;27.30;46.60
73322;DHT22;61549;37.044;22.128;2022-10-19T14:23:32;27.30;46.50
73322;DHT22;61549;37.044;22.128;2022-10-19T14:25:59;27.20;46.30
73322;DHT22;61549;37.044;22.128;2022-10-19T14:28:27;27.20;46.40
73322;DHT22;61549;37.044;22.128;2022-10-19T14:31:05;27.20;46.40
73322;DHT22;61549;37.044;22.128;2022-10-19T14:33:34;27.20;45.90
73322;DHT22;61549;37.044;22.128;2022-10-19T14:36:02;27.00;46.30
73322;DHT22;61549;37.044;22.128;2022-10-19T14:41:00;27.10;45.50
73322;DHT22;61549;37.044;22.128;2022-10-19T14:43:28;27.10;45.80
73322;DHT22;61549;37.044;22.128;2022-10-19T14:48:33;27.20;46.90
73322;DHT22;61549;37.044;22.128;2022-10-19T14:51:01;27.10;45.90
73322;DHT22;61549;37.044;22.128;2022-10-19T14:53:41;27.10;46.30
73322;DHT22;61549;37.044;22.128;2022-10-19T14:56:13;27.20;46.70
73322;DHT22;61549;37.044;22.128;2022-10-19T15:01:19;26.90;47.30
73322;DHT22;61549;37.044;22.128;2022-10-19T15:03:46;26.80;47.60
73322;DHT22;61549;37.044;22.128;2022-10-19T15:06:17;26.80;47.90
73322;DHT22;61549;37.044;22.128;2022-10-19T15:08:48;26.70;48.00
73322;DHT22;61549;37.044;22.128;2022-10-19T15:11:39;26.60;48.40
73322;DHT22;61549;37.044;22.128;2022-10-19T15:14:15;26.50;48.40
73322;DHT22;61549;37.044;22.128;2022-10-19T15:16:50;26.40;49.40
73322;DHT22;61549;37.044;22.128;2022-10-19T15:24:35;26.50;49.00
73322;DHT22;61549;37.044;22.128;2022-10-19T15:27:35;26.40;48.90
73322;DHT22;61549;37.044;22.128;2022-10-19T15:30:28;26.30;48.70
73322;DHT22;61549;37.044;22.128;2022-10-19T15:33:09;26.20;49.00
73322;DHT22;61549;37.044;22.128;2022-10-19T15:35:42;26.20;49.30
73322;DHT22;61549;37.044;22.128;2022-10-19T15:38:26;26.20;49.40
73322;DHT22;61549;37.044;22.128;2022-10-19T15:40:58;26.20;49.60
73322;DHT22;61549;37.044;22.128;2022-10-19T15:46:23;26.10;49.40
73322;DHT22;61549;37.044;22.128;2022-10-19T15:48:51;26.10;49.70
73322;DHT22;61549;37.044;22.128;2022-10-19T15:53:56;26.00;50.30
73322;DHT22;61549;37.044;22.128;2022-10-19T15:56:25;25.90;50.00
73322;DHT22;61549;37.044;22.128;2022-10-19T15:58:53;26.00;50.80
73322;DHT22;61549;37.044;22.128;2022-10-19T16:01:25;25.90;50.50
73322;DHT22;61549;37.044;22.128;2022-10-19T16:03:53;25.90;51.00
73322;DHT22;61549;37.044;22.128;2022-10-19T16:06:20;25.90;51.10
73322;DHT22;61549;37.044;22.128;2022-10-19T16:08:47;25.90;51.60
73322;DHT22;61549;37.044;22.128;2022-10-19T16:11:17;25.90;51.80
73322;DHT22;61549;37.044;22.128;2022-10-19T16:13:43;25.80;51.40
73322;DHT22;61549;37.044;22.128;2022-10-19T16:16:31;25.80;51.90
73322;DHT22;61549;37.044;22.128;2022-10-19T16:18:58;25.80;51.50
73322;DHT22;61549;37.044;22.128;2022-10-19T16:21:28;25.80;51.60
73322;DHT22;61549;37.044;22.128;2022-10-19T16:23:54;25.70;51.60
73322;DHT22;61549;37.044;22.128;2022-10-19T16:26:22;25.70;51.80
73322;DHT22;61549;37.044;22.128;2022-10-19T16:28:49;25.80;52.80
73322;DHT22;61549;37.044;22.128;2022-10-19T16:31:15;25.80;53.20
73322;DHT22;61549;37.044;22.128;2022-10-19T16:33:41;25.70;53.70
73322;DHT22;61549;37.044;22.128;2022-10-19T16:36:08;25.60;54.10
73322;DHT22;61549;37.044;22.128;2022-10-19T16:38:34;25.50;54.40
73322;DHT22;61549;37.044;22.128;2022-10-19T16:41:03;25.40;54.80
73322;DHT22;61549;37.044;22.128;2022-10-19T16:43:29;25.30;55.10
73322;DHT22;61549;37.044;22.128;2022-10-19T16:45:55;25.20;55.30
73322;DHT22;61549;37.044;22.128;2022-10-19T16:48:21;25.20;55.50
73322;DHT22;61549;37.044;22.128;2022-10-19T16:53:29;25.10;56.00
73322;DHT22;61549;37.044;22.128;2022-10-19T16:56:03;25.00;56.20
73322;DHT22;61549;37.044;22.128;2022-10-19T16:58:29;25.00;56.40
73322;DHT22;61549;37.044;22.128;2022-10-19T17:00:55;24.90;56.50
73322;DHT22;61549;37.044;22.128;2022-10-19T17:03:27;24.90;56.70
73322;DHT22;61549;37.044;22.128;2022-10-19T17:05:53;24.90;56.60
73322;DHT22;61549;37.044;22.128;2022-10-19T17:08:19;24.90;56.80
73322;DHT22;61549;37.044;22.128;2022-10-19T17:10:45;24.90;56.90
73322;DHT22;61549;37.044;22.128;2022-10-19T17:13:12;24.90;56.70
73322;DHT22;61549;37.044;22.128;2022-10-19T17:15:37;24.80;56.70
73322;DHT22;61549;37.044;22.128;2022-10-19T17:18:03;24.90;56.90
73322;DHT22;61549;37.044;22.128;2022-10-19T17:20:31;24.80;57.00
73322;DHT22;61549;37.044;22.128;2022-10-19T17:22:57;24.80;57.10
73322;DHT22;61549;37.044;22.128;2022-10-19T17:25:23;24.70;57.30
73322;DHT22;61549;37.044;22.128;2022-10-19T17:27:50;24.70;57.30
73322;DHT22;61549;37.044;22.128;2022-10-19T17:30:16;24.70;57.30
73322;DHT22;61549;37.044;22.128;2022-10-19T17:32:42;24.70;57.30
73322;DHT22;61549;37.044;22.128;2022-10-19T17:35:08;24.70;57.40
73322;DHT22;61549;37.044;22.128;2022-10-19T17:37:34;24.70;57.30
73322;DHT22;61549;37.044;22.128;2022-10-19T17:40:02;24.70;57.30
73322;DHT22;61549;37.044;22.128;2022-10-19T17:42:27;24.70;57.30
73322;DHT22;61549;37.044;22.128;2022-10-19T17:44:54;24.70;57.40
73322;DHT22;61549;37.044;22.128;2022-10-19T17:47:20;24.70;57.60
73322;DHT22;61549;37.044;22.128;2022-10-19T17:49:45;24.70;57.60
73322;DHT22;61549;37.044;22.128;2022-10-19T17:52:11;24.70;57.40
73322;DHT22;61549;37.044;22.128;2022-10-19T17:54:37;24.70;57.40
73322;DHT22;61549;37.044;22.128;2022-10-19T17:57:03;24.60;57.30
73322;DHT22;61549;37.044;22.128;2022-10-19T17:59:29;24.60;57.50
73322;DHT22;61549;37.044;22.128;2022-10-19T18:01:55;24.50;57.50
73322;DHT22;61549;37.044;22.128;2022-10-19T18:04:21;24.50;57.70
73322;DHT22;61549;37.044;22.128;2022-10-19T18:06:47;24.40;57.80
73322;DHT22;61549;37.044;22.128;2022-10-19T18:09:13;24.40;57.70
73322;DHT22;61549;37.044;22.128;2022-10-19T18:11:42;24.40;57.80
73322;DHT22;61549;37.044;22.128;2022-10-19T18:14:10;24.40;57.70
73322;DHT22;61549;37.044;22.128;2022-10-19T18:16:43;24.40;57.70
73322;DHT22;61549;37.044;22.128;2022-10-19T18:19:11;24.30;57.80
73322;DHT22;61549;37.044;22.128;2022-10-19T18:21:39;24.30;57.90
73322;DHT22;61549;37.044;22.128;2022-10-19T18:24:09;24.30;58.10
73322;DHT22;61549;37.044;22.128;2022-10-19T18:26:35;24.20;58.30
73322;DHT22;61549;37.044;22.128;2022-10-19T18:29:12;24.20;58.60
73322;DHT22;61549;37.044;22.128;2022-10-19T18:31:39;24.10;58.50
73322;DHT22;61549;37.044;22.128;2022-10-19T18:34:06;24.10;58.50
73322;DHT22;61549;37.044;22.128;2022-10-19T18:36:33;24.10;58.50
73322;DHT22;61549;37.044;22.128;2022-10-19T18:39:02;24.10;58.50
73322;DHT22;61549;37.044;22.128;2022-10-19T18:41:29;24.00;58.40